createdAt,value
2023-05-03T00:01:09.924Z,8.13
2023-05-03T00:02:44.817Z,8.14
2023-05-03T00:04:18.683Z,8.14
2023-05-03T00:05:50.633Z,8.15
2023-05-03T00:07:23.179Z,8.15
2023-05-03T00:08:55.159Z,8.14
2023-05-03T00:10:27.023Z,8.14
2023-05-03T00:12:00.813Z,8.13
2023-05-03T00:13:32.618Z,8.14
2023-05-03T00:15:05.023Z,8.14
2023-05-03T00:16:37.133Z,8.12
2023-05-03T00:18:09.036Z,8.13
2023-05-03T00:19:40.880Z,8.12
2023-05-03T00:21:12.693Z,8.09
2023-05-03T00:22:44.489Z,8.08
2023-05-03T00:24:16.343Z,8.07
2023-05-03T00:25:56.108Z,8.08
2023-05-03T00:27:29.051Z,8.08
2023-05-03T00:29:01.476Z,8.07
2023-05-03T00:30:33.327Z,8.07
2023-05-03T00:32:05.466Z,8.06
2023-05-03T00:33:38.431Z,8.05
2023-05-03T00:35:10.334Z,8.05
2023-05-03T00:36:42.144Z,8.04
2023-05-03T00:38:16.659Z,8.03
2023-05-03T00:39:48.826Z,8.02
2023-05-03T00:41:20.663Z,8.02
2023-05-03T00:42:52.597Z,8.01
2023-05-03T00:44:24.770Z,8.00
2023-05-03T00:46:08.324Z,7.98
2023-05-03T00:47:47.517Z,7.99
2023-05-03T00:49:19.686Z,7.97
2023-05-03T00:50:51.842Z,7.96
2023-05-03T00:52:23.729Z,7.95
2023-05-03T00:53:56.589Z,7.95
2023-05-03T00:55:30.704Z,7.93
2023-05-03T00:57:04.898Z,7.92
2023-05-03T00:58:40.416Z,7.93
2023-05-03T01:00:13.722Z,7.90
2023-05-03T01:01:53.317Z,7.87
2023-05-03T01:03:25.355Z,7.87
2023-05-03T01:04:57.323Z,7.85
2023-05-03T01:06:38.433Z,7.82
2023-05-03T01:08:37.925Z,7.77
2023-05-03T01:10:26.996Z,7.77
2023-05-03T01:12:23.950Z,7.75
2023-05-03T01:14:27.736Z,7.70
2023-05-03T01:16:24.641Z,7.68
2023-05-03T01:18:03.281Z,7.68
2023-05-03T01:19:44.581Z,7.64
2023-05-03T01:21:18.867Z,7.63
2023-05-03T01:23:02.207Z,7.59
2023-05-03T01:24:37.611Z,7.59
2023-05-03T01:26:35.634Z,7.51
2023-05-03T01:28:07.434Z,7.54
2023-05-03T01:29:39.684Z,7.52
2023-05-03T01:31:43.566Z,7.47
2023-05-03T01:33:31.867Z,7.43
2023-05-03T01:35:35.209Z,7.40
2023-05-03T01:37:10.599Z,7.39
2023-05-03T01:38:43.200Z,7.37
2023-05-03T01:40:19.975Z,7.34
2023-05-03T01:41:53.172Z,7.32
2023-05-03T01:43:25.988Z,7.29
2023-05-03T01:44:58.982Z,7.27
2023-05-03T01:46:32.375Z,7.24
2023-05-03T01:48:15.995Z,7.20
2023-05-03T01:49:47.780Z,7.20
2023-05-03T01:51:19.941Z,7.18
2023-05-03T01:52:53.455Z,7.14
2023-05-03T01:54:25.261Z,7.12
2023-05-03T01:55:57.150Z,7.09
2023-05-03T01:57:28.989Z,7.07
2023-05-03T01:59:02.500Z,7.06
2023-05-03T02:00:34.370Z,7.03
2023-05-03T02:02:06.203Z,7.01
2023-05-03T02:03:38.598Z,6.99
2023-05-03T02:05:11.542Z,6.97
2023-05-03T02:06:43.340Z,6.96
2023-05-03T02:08:15.180Z,6.93
2023-05-03T02:09:47.028Z,6.91
2023-05-03T02:11:18.851Z,6.90
2023-05-03T02:12:50.629Z,6.86
2023-05-03T02:14:22.566Z,6.86
2023-05-03T02:15:55.691Z,6.84
2023-05-03T02:17:28.255Z,6.84
2023-05-03T02:19:00.142Z,6.81
2023-05-03T02:20:36.678Z,6.81
2023-05-03T02:22:08.549Z,6.78
2023-05-03T02:23:40.723Z,6.77
2023-05-03T02:25:12.676Z,6.75
2023-05-03T02:26:44.449Z,6.75
2023-05-03T02:28:16.235Z,6.72
2023-05-03T02:29:48.110Z,6.70
2023-05-03T02:31:20.204Z,6.69
2023-05-03T02:32:52.138Z,6.68
2023-05-03T02:34:27.918Z,6.67
2023-05-03T02:35:59.857Z,6.64
2023-05-03T02:37:32.354Z,6.62
2023-05-03T02:39:05.629Z,6.61
2023-05-03T02:40:38.515Z,6.61
2023-05-03T02:42:10.891Z,6.60
2023-05-03T02:43:42.774Z,6.59
2023-05-03T02:45:15.215Z,6.57
2023-05-03T02:46:47.085Z,6.55
2023-05-03T02:48:20.916Z,6.54
2023-05-03T02:49:52.908Z,6.53
2023-05-03T02:51:24.826Z,6.52
2023-05-03T02:52:56.845Z,6.51
2023-05-03T02:54:29.160Z,6.47
2023-05-03T02:56:01.896Z,6.47
2023-05-03T02:57:34.051Z,6.46
2023-05-03T02:59:06.280Z,6.46
2023-05-03T03:00:38.100Z,6.45
2023-05-03T03:02:09.877Z,6.44
2023-05-03T03:03:43.260Z,6.44
2023-05-03T03:05:15.226Z,6.44
2023-05-03T03:06:53.698Z,6.43
2023-05-03T03:08:25.798Z,6.43
2023-05-03T03:09:59.954Z,6.44
2023-05-03T03:11:31.959Z,6.43
2023-05-03T03:13:03.826Z,6.42
2023-05-03T03:14:41.884Z,6.42
2023-05-03T03:16:15.218Z,6.42
2023-05-03T03:17:47.313Z,6.41
2023-05-03T03:19:19.835Z,6.42
2023-05-03T03:20:51.658Z,6.41
2023-05-03T03:22:25.893Z,6.41
2023-05-03T03:23:57.694Z,6.41
2023-05-03T03:25:29.874Z,6.40
2023-05-03T03:27:03.860Z,6.40
2023-05-03T03:28:36.071Z,6.39
2023-05-03T03:30:13.305Z,6.38
2023-05-03T03:31:56.155Z,6.37
2023-05-03T03:33:28.757Z,6.37
2023-05-03T03:35:08.734Z,6.35
2023-05-03T03:36:40.561Z,6.34
2023-05-03T03:38:12.709Z,6.33
2023-05-03T03:39:52.600Z,6.31
2023-05-03T03:41:24.699Z,6.30
2023-05-03T03:42:58.090Z,6.30
2023-05-03T03:44:31.125Z,6.28
2023-05-03T03:46:03.013Z,6.27
2023-05-03T03:47:34.877Z,6.26
2023-05-03T03:49:08.151Z,6.26
2023-05-03T03:50:41.434Z,6.25
2023-05-03T03:52:14.077Z,6.25
2023-05-03T03:53:45.938Z,6.25
2023-05-03T03:55:18.172Z,6.26
2023-05-03T03:56:52.632Z,6.23
2023-05-03T03:58:24.928Z,6.24
2023-05-03T03:59:58.713Z,6.25
2023-05-03T04:01:32.418Z,6.25
2023-05-03T04:03:07.855Z,6.25
2023-05-03T04:04:39.984Z,6.26
2023-05-03T04:06:12.226Z,6.25
2023-05-03T04:07:44.076Z,6.26
2023-05-03T04:09:17.813Z,6.27
2023-05-03T04:10:50.951Z,6.28
2023-05-03T04:12:23.642Z,6.29
2023-05-03T04:13:55.539Z,6.31
2023-05-03T04:15:27.575Z,6.33
2023-05-03T04:17:02.544Z,6.33
2023-05-03T04:18:34.400Z,6.35
2023-05-03T04:20:11.045Z,6.36
2023-05-03T04:21:45.093Z,6.38
2023-05-03T04:23:17.369Z,6.40
2023-05-03T04:24:49.202Z,6.41
2023-05-03T04:26:31.656Z,6.43
2023-05-03T04:28:09.549Z,6.45
2023-05-03T04:29:45.328Z,6.46
2023-05-03T04:31:19.246Z,6.49
2023-05-03T04:32:54.487Z,6.50
2023-05-03T04:34:30.401Z,6.53
2023-05-03T04:36:02.955Z,6.55
2023-05-03T04:37:35.598Z,6.59
2023-05-03T04:39:07.578Z,6.59
2023-05-03T04:40:41.257Z,6.63
2023-05-03T04:42:18.542Z,6.64
2023-05-03T04:43:50.803Z,6.68
2023-05-03T04:45:22.705Z,6.70
2023-05-03T04:46:54.674Z,6.74
2023-05-03T04:48:27.241Z,6.78
2023-05-03T04:49:59.439Z,6.81
2023-05-03T04:51:32.187Z,6.83
2023-05-03T04:53:04.883Z,6.85
2023-05-03T04:54:39.242Z,6.89
2023-05-03T04:56:11.576Z,6.92
2023-05-03T04:57:45.367Z,6.96
2023-05-03T04:59:18.865Z,6.99
2023-05-03T05:00:51.299Z,7.02
2023-05-03T05:02:30.481Z,7.06
2023-05-03T05:04:03.155Z,7.08
2023-05-03T05:05:42.674Z,7.12
2023-05-03T05:07:16.336Z,7.18
2023-05-03T05:08:51.120Z,7.20
2023-05-03T05:10:23.060Z,7.24
2023-05-03T05:11:57.056Z,7.29
2023-05-03T05:13:30.871Z,7.32
2023-05-03T05:15:02.827Z,7.35
2023-05-03T05:16:34.905Z,7.38
2023-05-03T05:18:07.542Z,7.41
2023-05-03T05:19:39.764Z,7.46
2023-05-03T05:21:12.570Z,7.51
2023-05-03T05:22:44.380Z,7.55
2023-05-03T05:24:16.256Z,7.58
2023-05-03T05:25:49.689Z,7.62
2023-05-03T05:27:22.905Z,7.68
2023-05-03T05:28:57.177Z,7.72
2023-05-03T05:30:28.980Z,7.76
2023-05-03T05:32:03.663Z,7.81
2023-05-03T05:33:35.948Z,7.87
2023-05-03T05:35:08.998Z,7.92
2023-05-03T05:36:41.554Z,7.96
2023-05-03T05:38:17.693Z,8.00
2023-05-03T05:39:50.072Z,8.05
2023-05-03T05:41:23.732Z,8.10
2023-05-03T05:42:55.941Z,8.16
2023-05-03T05:44:30.566Z,8.22
2023-05-03T05:46:02.375Z,8.28
2023-05-03T05:47:34.752Z,8.34
2023-05-03T05:49:07.683Z,8.41
2023-05-03T05:50:39.496Z,8.46
2023-05-03T05:52:15.005Z,8.54
2023-05-03T05:53:47.456Z,8.60
2023-05-03T05:55:21.364Z,8.65
2023-05-03T05:56:54.995Z,8.71
2023-05-03T05:58:27.142Z,8.76
2023-05-03T06:00:01.012Z,8.83
2023-05-03T06:01:34.565Z,8.89
2023-05-03T06:03:06.487Z,8.96
2023-05-03T06:04:38.478Z,9.02
2023-05-03T06:06:11.200Z,9.10
2023-05-03T06:07:43.052Z,9.16
2023-05-03T06:09:24.322Z,9.21
2023-05-03T06:10:59.778Z,9.27
2023-05-03T06:12:33.095Z,9.35
2023-05-03T06:14:09.606Z,9.40
2023-05-03T06:15:43.703Z,9.46
2023-05-03T06:17:15.646Z,9.56
2023-05-03T06:18:47.456Z,9.63
2023-05-03T06:20:19.316Z,9.71
2023-05-03T06:21:52.953Z,9.77
2023-05-03T06:23:24.771Z,9.85
2023-05-03T06:24:58.269Z,9.94
2023-05-03T06:26:30.828Z,10.08
2023-05-03T06:28:02.765Z,10.24
2023-05-03T06:29:37.491Z,10.40
2023-05-03T06:31:09.305Z,10.54
2023-05-03T06:32:42.720Z,10.70
2023-05-03T06:34:20.292Z,10.89
2023-05-03T06:35:52.182Z,11.10
2023-05-03T06:37:24.520Z,11.33
2023-05-03T06:38:56.382Z,11.59
2023-05-03T06:40:28.213Z,11.85
2023-05-03T06:42:00.023Z,12.13
2023-05-03T06:43:39.204Z,12.44
2023-05-03T06:45:11.960Z,12.77
2023-05-03T06:46:43.865Z,13.07
2023-05-03T06:48:15.934Z,13.38
2023-05-03T06:49:48.948Z,13.68
2023-05-03T06:51:22.943Z,13.97
2023-05-03T06:52:54.990Z,14.24
2023-05-03T06:54:26.949Z,14.48
2023-05-03T06:55:59.086Z,14.73
2023-05-03T06:57:30.880Z,14.97
2023-05-03T06:59:03.849Z,15.18
2023-05-03T07:00:36.007Z,15.36
2023-05-03T07:02:08.109Z,15.59
2023-05-03T07:03:41.761Z,15.76
2023-05-03T07:05:13.950Z,15.92
2023-05-03T07:06:55.990Z,16.08
2023-05-03T07:08:28.698Z,16.24
2023-05-03T07:10:00.749Z,16.34
2023-05-03T07:11:34.762Z,16.44
2023-05-03T07:13:06.738Z,16.53
2023-05-03T07:14:40.380Z,16.59
2023-05-03T07:16:12.217Z,16.65
2023-05-03T07:17:44.082Z,16.75
2023-05-03T07:19:16.080Z,16.80
2023-05-03T07:20:48.979Z,16.85
2023-05-03T07:22:27.628Z,16.91
2023-05-03T07:23:59.901Z,16.97
2023-05-03T07:25:32.187Z,17.01
2023-05-03T07:27:04.051Z,17.07
2023-05-03T07:28:35.862Z,17.10
2023-05-03T07:30:08.242Z,17.16
2023-05-03T07:31:40.084Z,17.22
2023-05-03T07:33:12.432Z,17.26
2023-05-03T07:34:44.412Z,17.31
2023-05-03T07:36:16.192Z,17.38
2023-05-03T07:37:47.981Z,17.43
2023-05-03T07:39:19.834Z,17.47
2023-05-03T07:40:51.624Z,17.53
2023-05-03T07:42:25.095Z,17.58
2023-05-03T07:43:56.900Z,17.64
2023-05-03T07:45:28.870Z,17.69
2023-05-03T07:47:00.678Z,17.76
2023-05-03T07:48:32.618Z,17.83
2023-05-03T07:50:06.261Z,17.90
2023-05-03T07:51:39.244Z,17.96
2023-05-03T07:53:12.471Z,18.00
2023-05-03T07:54:45.925Z,18.09
2023-05-03T07:56:17.808Z,18.10
2023-05-03T07:57:49.611Z,18.13
2023-05-03T07:59:21.471Z,18.15
2023-05-03T08:00:53.345Z,18.14
2023-05-03T08:02:25.331Z,18.16
2023-05-03T08:03:58.771Z,18.18
2023-05-03T08:05:30.880Z,18.21
2023-05-03T08:07:03.409Z,18.21
2023-05-03T08:08:36.110Z,18.24
2023-05-03T08:10:08.804Z,18.26
2023-05-03T08:11:43.193Z,18.28
2023-05-03T08:13:15.974Z,18.33
2023-05-03T08:14:47.840Z,18.32
2023-05-03T08:16:20.129Z,18.33
2023-05-03T08:17:52.084Z,18.31
2023-05-03T08:19:24.220Z,18.27
2023-05-03T08:20:56.164Z,18.28
2023-05-03T08:22:28.016Z,18.27
2023-05-03T08:23:59.819Z,18.26
2023-05-03T08:25:31.796Z,18.25
2023-05-03T08:27:03.602Z,18.23
2023-05-03T08:28:35.745Z,18.23
2023-05-03T08:30:08.661Z,18.24
2023-05-03T08:31:41.393Z,18.30
2023-05-03T08:33:13.478Z,18.37
2023-05-03T08:34:45.300Z,18.44
2023-05-03T08:36:17.300Z,18.52
2023-05-03T08:37:49.142Z,18.64
2023-05-03T08:39:20.964Z,18.74
2023-05-03T08:40:55.480Z,18.84
2023-05-03T08:42:30.815Z,18.88
2023-05-03T08:44:05.711Z,18.92
2023-05-03T08:45:37.706Z,18.95
2023-05-03T08:47:09.690Z,18.98
2023-05-03T08:48:42.186Z,19.02
2023-05-03T08:50:15.661Z,19.08
2023-05-03T08:51:48.674Z,19.14
2023-05-03T08:53:21.062Z,19.20
2023-05-03T08:54:52.837Z,19.25
2023-05-03T08:56:33.004Z,19.31
2023-05-03T08:58:11.013Z,19.40
2023-05-03T08:59:50.083Z,19.43
2023-05-03T09:01:22.283Z,19.39
2023-05-03T09:02:54.350Z,19.31
2023-05-03T09:04:34.892Z,19.14
2023-05-03T09:06:22.973Z,18.90
2023-05-03T09:08:05.746Z,18.66
2023-05-03T09:09:37.646Z,18.45
2023-05-03T09:11:23.698Z,18.22
2023-05-03T09:13:01.354Z,18.07
2023-05-03T09:14:43.413Z,17.93
2023-05-03T09:16:29.784Z,17.87
2023-05-03T09:18:16.696Z,17.87
2023-05-03T09:19:53.645Z,17.91
2023-05-03T09:21:25.835Z,17.94
2023-05-03T09:22:57.703Z,18.00
2023-05-03T09:24:29.519Z,18.06
2023-05-03T09:26:01.424Z,18.13
2023-05-03T09:27:33.267Z,18.14
2023-05-03T09:29:05.511Z,18.19
2023-05-03T09:30:37.566Z,18.21
2023-05-03T09:32:10.769Z,18.22
2023-05-03T09:33:42.730Z,18.22
2023-05-03T09:35:15.368Z,18.20
2023-05-03T09:36:47.552Z,18.17
2023-05-03T09:38:27.442Z,18.11
2023-05-03T09:40:08.011Z,18.05
2023-05-03T09:41:39.835Z,17.97
2023-05-03T09:43:13.160Z,17.91
2023-05-03T09:44:49.102Z,17.85
2023-05-03T09:46:21.020Z,17.80
2023-05-03T09:47:54.254Z,17.80
2023-05-03T09:49:26.084Z,17.74
2023-05-03T09:50:58.062Z,17.69
2023-05-03T09:52:30.802Z,17.62
2023-05-03T09:54:03.816Z,17.54
2023-05-03T09:55:37.502Z,17.43
2023-05-03T09:57:09.403Z,17.34
2023-05-03T09:58:42.569Z,17.23
2023-05-03T10:00:17.013Z,17.15
2023-05-03T10:01:49.207Z,17.11
2023-05-03T10:03:44.792Z,17.07
2023-05-03T10:05:18.609Z,17.12
2023-05-03T10:06:52.003Z,17.14
2023-05-03T10:09:12.417Z,17.17
2023-05-03T10:10:46.016Z,17.26
2023-05-03T10:12:18.896Z,17.34
2023-05-03T10:13:50.974Z,17.38
2023-05-03T10:15:23.939Z,17.38
2023-05-03T10:17:08.230Z,17.37
2023-05-03T10:19:07.716Z,17.33
2023-05-03T10:20:50.820Z,17.37
2023-05-03T10:22:22.608Z,17.34
2023-05-03T10:24:09.561Z,17.29
2023-05-03T10:26:11.673Z,17.24
2023-05-03T10:27:51.915Z,17.25
2023-05-03T10:29:36.236Z,17.20
2023-05-03T10:31:44.130Z,17.17
2023-05-03T10:33:16.364Z,17.20
2023-05-03T10:34:48.320Z,17.20
2023-05-03T10:36:20.108Z,17.20
2023-05-03T10:37:52.130Z,17.21
2023-05-03T10:39:24.432Z,17.23
2023-05-03T10:40:57.048Z,17.28
2023-05-03T10:42:28.856Z,17.33
2023-05-03T10:44:00.717Z,17.38
2023-05-03T10:45:33.472Z,17.43
2023-05-03T10:47:15.039Z,17.49
2023-05-03T10:49:19.956Z,17.52
2023-05-03T10:50:52.959Z,17.56
2023-05-03T10:52:40.072Z,17.62
2023-05-03T10:54:12.536Z,17.71
2023-05-03T10:56:05.645Z,17.73
2023-05-03T10:57:40.375Z,17.83
2023-05-03T10:59:12.588Z,17.91
2023-05-03T11:00:45.109Z,17.98
2023-05-03T11:02:23.236Z,18.03
2023-05-03T11:03:55.089Z,18.10
2023-05-03T11:05:28.738Z,18.17
2023-05-03T11:07:01.565Z,18.24
2023-05-03T11:08:37.972Z,18.30
2023-05-03T11:10:17.861Z,18.37
2023-05-03T11:11:49.678Z,18.42
2023-05-03T11:13:21.649Z,18.41
2023-05-03T11:14:53.521Z,18.43
2023-05-03T11:16:26.160Z,18.41
2023-05-03T11:17:58.172Z,18.41
2023-05-03T11:19:30.244Z,18.42
2023-05-03T11:21:02.228Z,18.44
2023-05-03T11:22:34.329Z,18.45
2023-05-03T11:24:06.377Z,18.50
2023-05-03T11:25:39.427Z,18.52
2023-05-03T11:27:14.112Z,18.57
2023-05-03T11:28:45.992Z,18.61
2023-05-03T11:30:18.268Z,18.64
2023-05-03T11:31:51.936Z,18.66
2023-05-03T11:33:23.892Z,18.69
2023-05-03T11:34:56.457Z,18.70
2023-05-03T11:36:30.795Z,18.64
2023-05-03T11:38:03.225Z,18.61
2023-05-03T11:39:36.452Z,18.57
2023-05-03T11:41:19.185Z,18.51
2023-05-03T11:42:59.104Z,18.46
2023-05-03T11:44:31.165Z,18.43
2023-05-03T11:46:03.211Z,18.42
2023-05-03T11:47:37.356Z,18.40
2023-05-03T11:49:10.124Z,18.41
2023-05-03T11:50:46.640Z,18.42
2023-05-03T11:52:26.106Z,18.44
2023-05-03T11:54:06.909Z,18.46
2023-05-03T11:55:48.242Z,18.50
2023-05-03T11:57:21.716Z,18.52
2023-05-03T11:58:57.602Z,18.54
2023-05-03T12:00:30.266Z,18.55
2023-05-03T12:02:04.721Z,18.57
2023-05-03T12:03:36.918Z,18.60
2023-05-03T12:05:10.585Z,18.62
2023-05-03T12:06:44.686Z,18.63
2023-05-03T12:08:20.828Z,18.63
2023-05-03T12:10:06.785Z,18.64
2023-05-03T12:11:48.070Z,18.66
2023-05-03T12:13:34.086Z,18.66
2023-05-03T12:15:07.939Z,18.69
2023-05-03T12:16:52.183Z,18.65
2023-05-03T12:18:24.764Z,18.67
2023-05-03T12:20:42.692Z,18.61
2023-05-03T12:22:25.628Z,18.53
2023-05-03T12:23:58.209Z,18.48
2023-05-03T12:25:34.419Z,18.42
2023-05-03T12:27:08.688Z,18.38
2023-05-03T12:28:40.698Z,18.30
2023-05-03T12:30:13.355Z,18.22
2023-05-03T12:31:49.182Z,18.17
2023-05-03T12:33:22.882Z,18.11
2023-05-03T12:35:01.918Z,18.05
2023-05-03T12:36:37.128Z,18.05
2023-05-03T12:38:10.665Z,18.04
2023-05-03T12:39:46.194Z,18.05
2023-05-03T12:41:52.208Z,18.08
2023-05-03T12:43:16.336Z,18.11
2023-05-03T12:44:48.423Z,18.12
2023-05-03T12:46:33.899Z,18.12
2023-05-03T12:48:06.904Z,18.16
2023-05-03T12:49:39.984Z,18.17
2023-05-03T12:52:46.855Z,18.22
2023-05-03T12:54:19.295Z,18.26
2023-05-03T12:55:52.113Z,18.29
2023-05-03T12:57:24.764Z,18.30
2023-05-03T13:00:35.451Z,18.31
2023-05-03T13:03:53.584Z,18.29
2023-05-03T13:05:37.131Z,18.29
2023-05-03T13:07:13.413Z,18.26
2023-05-03T13:08:50.265Z,18.25
2023-05-03T13:10:23.285Z,18.25
2023-05-03T13:11:55.251Z,18.24
2023-05-03T13:13:28.718Z,18.24
2023-05-03T13:15:03.902Z,18.26
2023-05-03T13:16:38.975Z,18.28
2023-05-03T13:18:10.899Z,18.30
2023-05-03T13:19:47.455Z,18.30
2023-05-03T13:21:19.270Z,18.32
2023-05-03T13:22:51.126Z,18.32
2023-05-03T13:24:22.961Z,18.35
2023-05-03T13:25:57.437Z,18.39
2023-05-03T13:27:30.592Z,18.46
2023-05-03T13:29:02.445Z,18.52
2023-05-03T13:30:34.681Z,18.58
2023-05-03T13:32:07.236Z,18.63
2023-05-03T13:33:39.295Z,18.70
2023-05-03T13:35:11.134Z,18.73
2023-05-03T13:36:43.186Z,18.75
2023-05-03T13:38:14.972Z,18.82
2023-05-03T13:39:47.020Z,18.85
2023-05-03T13:41:20.117Z,18.84
2023-05-03T13:42:51.956Z,18.82
2023-05-03T13:44:26.644Z,18.80
2023-05-03T13:46:02.380Z,18.77
2023-05-03T13:48:05.084Z,18.73
2023-05-03T13:49:26.686Z,18.78
2023-05-03T13:50:58.565Z,18.78
2023-05-03T13:52:30.990Z,18.84
2023-05-03T13:54:06.194Z,18.86
2023-05-03T13:55:38.028Z,18.88
2023-05-03T13:57:09.844Z,18.91
2023-05-03T13:58:41.665Z,18.97
2023-05-03T14:00:14.082Z,19.01
2023-05-03T14:01:48.245Z,19.10
2023-05-03T14:03:20.242Z,19.18
2023-05-03T14:04:53.179Z,19.24
2023-05-03T14:06:25.015Z,19.33
2023-05-03T14:07:57.463Z,19.40
2023-05-03T14:09:30.376Z,19.47
2023-05-03T14:11:04.677Z,19.57
2023-05-03T14:12:38.060Z,19.67
2023-05-03T14:14:09.969Z,19.75
2023-05-03T14:15:43.605Z,19.83
2023-05-03T14:17:15.565Z,19.90
2023-05-03T14:18:52.256Z,20.01
2023-05-03T14:20:24.200Z,20.12
2023-05-03T14:21:59.817Z,20.23
2023-05-03T14:23:31.647Z,20.36
2023-05-03T14:25:03.990Z,20.47
2023-05-03T14:26:37.315Z,20.59
2023-05-03T14:28:09.699Z,20.74
2023-05-03T14:29:41.644Z,20.85
2023-05-03T14:31:13.616Z,20.99
2023-05-03T14:32:45.474Z,21.08
2023-05-03T14:34:17.286Z,21.17
2023-05-03T14:35:49.098Z,21.25
2023-05-03T14:37:21.596Z,21.29
2023-05-03T14:38:53.767Z,21.31
2023-05-03T14:40:25.855Z,21.33
2023-05-03T14:41:57.659Z,21.39
2023-05-03T14:43:29.596Z,21.41
2023-05-03T14:45:02.257Z,21.47
2023-05-03T14:46:36.916Z,21.54
2023-05-03T14:48:08.822Z,21.59
2023-05-03T14:49:41.603Z,21.67
2023-05-03T14:51:15.125Z,21.71
2023-05-03T14:52:47.656Z,21.75
2023-05-03T14:54:20.001Z,21.79
2023-05-03T14:55:53.559Z,21.76
2023-05-03T14:57:25.401Z,21.77
2023-05-03T14:58:57.188Z,21.74
2023-05-03T15:00:29.497Z,21.73
2023-05-03T15:02:02.340Z,21.72
2023-05-03T15:03:34.265Z,21.70
2023-05-03T15:05:07.498Z,21.74
2023-05-03T15:06:39.748Z,21.79
2023-05-03T15:08:19.950Z,21.85
2023-05-03T15:09:51.800Z,21.88
2023-05-03T15:11:23.760Z,21.90
2023-05-03T15:12:55.658Z,21.94
2023-05-03T15:14:27.958Z,21.96
2023-05-03T15:15:59.812Z,22.00
2023-05-03T15:17:31.956Z,21.94
2023-05-03T15:19:04.138Z,21.93
2023-05-03T15:20:36.487Z,21.92
2023-05-03T15:22:08.302Z,21.95
2023-05-03T15:23:40.138Z,21.92
2023-05-03T15:25:12.005Z,21.93
2023-05-03T15:26:44.459Z,21.97
2023-05-03T15:28:16.469Z,21.99
2023-05-03T15:29:48.296Z,21.95
2023-05-03T15:31:20.157Z,21.90
2023-05-03T15:32:51.992Z,21.88
2023-05-03T15:34:23.888Z,21.84
2023-05-03T15:35:56.608Z,21.80
2023-05-03T15:37:38.819Z,21.76
2023-05-03T15:39:10.689Z,21.79
2023-05-03T15:40:42.511Z,21.78
2023-05-03T15:42:14.343Z,21.79
2023-05-03T15:43:46.598Z,21.74
2023-05-03T15:45:19.255Z,21.73
2023-05-03T15:46:51.214Z,21.70
2023-05-03T15:48:23.034Z,21.72
2023-05-03T15:49:57.627Z,21.75
2023-05-03T15:51:29.553Z,21.76
2023-05-03T15:53:01.336Z,21.78
2023-05-03T15:54:33.137Z,21.77
2023-05-03T15:56:05.484Z,21.75
2023-05-03T15:57:37.375Z,21.73
2023-05-03T15:59:10.163Z,21.69
2023-05-03T16:00:42.412Z,21.67
2023-05-03T16:02:14.255Z,21.64
2023-05-03T16:03:46.423Z,21.64
2023-05-03T16:05:19.041Z,21.66
2023-05-03T16:06:51.364Z,21.62
2023-05-03T16:08:23.156Z,21.55
2023-05-03T16:09:54.910Z,21.49
2023-05-03T16:11:26.915Z,21.39
2023-05-03T16:12:58.755Z,21.26
2023-05-03T16:14:30.723Z,21.19
2023-05-03T16:16:03.437Z,21.11
2023-05-03T16:17:35.937Z,21.05
2023-05-03T16:19:08.978Z,21.01
2023-05-03T16:20:41.465Z,20.96
2023-05-03T16:22:13.565Z,20.95
2023-05-03T16:23:46.275Z,20.94
2023-05-03T16:25:18.867Z,20.96
2023-05-03T16:26:52.933Z,20.98
2023-05-03T16:28:25.091Z,21.03
2023-05-03T16:29:58.377Z,21.07
2023-05-03T16:31:31.305Z,21.04
2023-05-03T16:33:03.616Z,20.98
2023-05-03T16:34:35.898Z,20.90
2023-05-03T16:36:07.873Z,20.83
2023-05-03T16:37:40.933Z,20.74
2023-05-03T16:39:13.270Z,20.63
2023-05-03T16:40:46.295Z,20.55
2023-05-03T16:42:18.934Z,20.42
2023-05-03T16:43:50.995Z,20.27
2023-05-03T16:45:23.056Z,20.12
2023-05-03T16:46:55.335Z,19.96
2023-05-03T16:48:30.446Z,19.77
2023-05-03T16:50:02.316Z,19.57
2023-05-03T16:51:34.422Z,19.35
2023-05-03T16:53:06.299Z,19.11
2023-05-03T16:54:38.298Z,18.90
2023-05-03T16:56:10.080Z,18.66
2023-05-03T16:57:41.997Z,18.44
2023-05-03T16:59:13.881Z,18.21
2023-05-03T17:00:46.168Z,17.96
2023-05-03T17:02:18.092Z,17.76
2023-05-03T17:03:50.057Z,17.55
2023-05-03T17:05:21.887Z,17.35
2023-05-03T17:06:54.636Z,17.18
2023-05-03T17:08:26.444Z,16.98
2023-05-03T17:09:58.382Z,16.82
2023-05-03T17:11:30.348Z,16.64
2023-05-03T17:13:15.171Z,16.47
2023-05-03T17:14:47.631Z,16.33
2023-05-03T17:16:19.445Z,16.20
2023-05-03T17:17:52.244Z,16.05
2023-05-03T17:19:24.366Z,15.92
2023-05-03T17:21:01.385Z,15.77
2023-05-03T17:22:33.672Z,15.64
2023-05-03T17:24:05.968Z,15.52
2023-05-03T17:25:37.776Z,15.38
2023-05-03T17:27:09.771Z,15.26
2023-05-03T17:28:44.146Z,15.14
2023-05-03T17:30:16.460Z,15.02
2023-05-03T17:31:49.193Z,14.91
2023-05-03T17:33:21.655Z,14.81
2023-05-03T17:34:53.523Z,14.71
2023-05-03T17:36:25.381Z,14.60
2023-05-03T17:37:57.374Z,14.49
2023-05-03T17:39:29.325Z,14.39
2023-05-03T17:41:07.704Z,14.28
2023-05-03T17:42:39.731Z,14.19
2023-05-03T17:44:12.722Z,14.06
2023-05-03T17:45:46.098Z,13.99
2023-05-03T17:47:17.963Z,13.89
2023-05-03T17:48:50.148Z,13.80
2023-05-03T17:50:22.139Z,13.68
2023-05-03T17:51:54.004Z,13.60
2023-05-03T17:53:26.046Z,13.51
2023-05-03T17:54:57.866Z,13.41
2023-05-03T17:56:30.012Z,13.31
2023-05-03T17:58:01.910Z,13.21
2023-05-03T17:59:33.716Z,13.12
2023-05-03T18:01:05.690Z,13.03
2023-05-03T18:02:37.570Z,12.94
2023-05-03T18:04:10.254Z,12.85
2023-05-03T18:05:42.133Z,12.74
2023-05-03T18:07:14.095Z,12.65
2023-05-03T18:08:45.961Z,12.55
2023-05-03T18:10:18.185Z,12.44
2023-05-03T18:11:50.019Z,12.35
2023-05-03T18:13:22.049Z,12.24
2023-05-03T18:14:59.605Z,12.14
2023-05-03T18:16:31.699Z,12.03
2023-05-03T18:18:03.830Z,11.93
2023-05-03T18:19:36.300Z,11.82
2023-05-03T18:21:10.699Z,11.72
2023-05-03T18:22:42.498Z,11.60
2023-05-03T18:24:15.855Z,11.50
2023-05-03T18:25:47.663Z,11.39
2023-05-03T18:27:21.126Z,11.28
2023-05-03T18:28:53.735Z,11.18
2023-05-03T18:30:28.293Z,11.07
2023-05-03T18:32:00.268Z,10.97
2023-05-03T18:33:33.937Z,10.88
2023-05-03T18:35:06.289Z,10.79
2023-05-03T18:36:39.232Z,10.68
2023-05-03T18:38:11.256Z,10.59
2023-05-03T18:39:43.087Z,10.49
2023-05-03T18:41:16.878Z,10.39
2023-05-03T18:42:48.875Z,10.30
2023-05-03T18:44:24.147Z,10.22
2023-05-03T18:45:56.105Z,10.12
2023-05-03T18:47:28.213Z,10.04
2023-05-03T18:49:03.320Z,9.96
2023-05-03T18:50:38.424Z,9.87
2023-05-03T18:52:10.251Z,9.80
2023-05-03T18:53:42.042Z,9.73
2023-05-03T18:55:13.971Z,9.65
2023-05-03T18:56:45.771Z,9.59
2023-05-03T18:58:17.863Z,9.53
2023-05-03T19:00:00.205Z,9.47
2023-05-03T19:01:33.931Z,9.41
2023-05-03T19:03:06.562Z,9.34
2023-05-03T19:04:38.733Z,9.30
2023-05-03T19:06:11.588Z,9.23
2023-05-03T19:07:46.906Z,9.19
2023-05-03T19:09:18.918Z,9.13
2023-05-03T19:10:50.730Z,9.07
2023-05-03T19:12:23.346Z,9.02
2023-05-03T19:13:55.190Z,8.97
2023-05-03T19:15:27.348Z,8.93
2023-05-03T19:16:59.447Z,8.88
2023-05-03T19:18:32.125Z,8.84
2023-05-03T19:20:05.524Z,8.78
2023-05-03T19:21:42.253Z,8.73
2023-05-03T19:23:14.046Z,8.70
2023-05-03T19:24:46.195Z,8.65
2023-05-03T19:26:18.039Z,8.60
2023-05-03T19:27:49.989Z,8.54
2023-05-03T19:29:22.089Z,8.49
2023-05-03T19:30:54.633Z,8.45
2023-05-03T19:32:26.654Z,8.40
2023-05-03T19:33:58.611Z,8.35
2023-05-03T19:35:30.429Z,8.29
2023-05-03T19:37:02.310Z,8.24
2023-05-03T19:38:37.172Z,8.18
2023-05-03T19:40:09.769Z,8.14
2023-05-03T19:41:41.592Z,8.08
2023-05-03T19:43:13.535Z,8.05
2023-05-03T19:44:45.415Z,8.02
2023-05-03T19:46:19.875Z,7.99
2023-05-03T19:47:51.934Z,7.96
2023-05-03T19:49:24.901Z,7.94
2023-05-03T19:50:56.729Z,7.92
2023-05-03T19:52:28.553Z,7.91
2023-05-03T19:54:03.583Z,7.89
2023-05-03T19:55:35.446Z,7.88
2023-05-03T19:57:07.727Z,7.87
2023-05-03T19:58:40.026Z,7.86
2023-05-03T20:00:14.423Z,7.86
2023-05-03T20:01:46.462Z,7.84
2023-05-03T20:03:18.737Z,7.83
2023-05-03T20:04:50.851Z,7.81
2023-05-03T20:06:22.750Z,7.79
2023-05-03T20:07:54.602Z,7.76
2023-05-03T20:09:26.407Z,7.73
2023-05-03T20:10:58.916Z,7.69
2023-05-03T20:12:30.913Z,7.66
2023-05-03T20:14:02.799Z,7.59
2023-05-03T20:15:36.547Z,7.55
2023-05-03T20:17:08.503Z,7.50
2023-05-03T20:18:41.282Z,7.44
2023-05-03T20:20:14.686Z,7.40
2023-05-03T20:21:46.491Z,7.34
2023-05-03T20:23:18.289Z,7.28
2023-05-03T20:24:52.293Z,7.21
2023-05-03T20:26:24.922Z,7.16
2023-05-03T20:27:57.398Z,7.10
2023-05-03T20:29:29.299Z,7.04
2023-05-03T20:31:01.140Z,7.00
2023-05-03T20:32:33.201Z,6.93